createdAt,value
2019-02-24T00:00:48.448Z,2.60
2019-02-24T00:01:48.412Z,2.60
2019-02-24T00:02:48.413Z,2.90
2019-02-24T00:03:48.432Z,2.70
2019-02-24T00:04:48.391Z,2.70
2019-02-24T00:05:48.375Z,2.60
2019-02-24T00:06:48.380Z,2.70
2019-02-24T00:07:48.367Z,2.50
2019-02-24T00:08:48.402Z,2.70
2019-02-24T00:09:48.332Z,2.70
2019-02-24T00:10:48.323Z,2.60
2019-02-24T00:11:48.303Z,2.50
2019-02-24T00:12:48.828Z,2.60
2019-02-24T00:13:48.313Z,2.70
2019-02-24T00:14:48.331Z,2.60
2019-02-24T00:15:48.263Z,2.90
2019-02-24T00:16:48.306Z,2.80
2019-02-24T00:17:48.259Z,2.70
2019-02-24T00:18:48.249Z,2.60
2019-02-24T00:19:48.234Z,2.90
2019-02-24T00:20:48.253Z,2.50
2019-02-24T00:21:48.199Z,2.60
2019-02-24T00:22:48.255Z,2.80
2019-02-24T00:23:48.195Z,2.60
2019-02-24T00:24:48.180Z,2.80
2019-02-24T00:25:48.200Z,2.70
2019-02-24T00:26:48.162Z,2.70
2019-02-24T00:27:48.168Z,2.80
2019-02-24T00:28:48.135Z,2.60
2019-02-24T00:29:48.133Z,2.60
2019-02-24T00:30:48.114Z,2.60
2019-02-24T00:31:48.137Z,2.50
2019-02-24T00:32:48.103Z,2.70
2019-02-24T00:33:48.077Z,2.70
2019-02-24T00:34:48.137Z,2.70
2019-02-24T00:35:48.063Z,2.70
2019-02-24T00:36:48.094Z,2.60
2019-02-24T00:37:48.040Z,2.90
2019-02-24T00:38:48.017Z,2.60
2019-02-24T00:39:48.045Z,2.70
2019-02-24T00:40:47.995Z,2.70
2019-02-24T00:41:48.019Z,2.80
2019-02-24T00:42:48.028Z,2.90
2019-02-24T00:43:47.975Z,2.60
2019-02-24T00:44:47.991Z,2.90
2019-02-24T00:45:47.954Z,2.60
2019-02-24T00:46:47.954Z,2.50
2019-02-24T00:47:47.971Z,2.70
2019-02-24T00:48:47.965Z,2.80
2019-02-24T00:49:47.923Z,2.90
2019-02-24T00:50:47.928Z,2.80
2019-02-24T00:51:47.892Z,2.90
2019-02-24T00:52:47.867Z,2.80
2019-02-24T00:53:47.897Z,2.90
2019-02-24T00:54:47.891Z,2.70
2019-02-24T00:55:47.831Z,2.70
2019-02-24T00:56:47.830Z,2.60
2019-02-24T00:57:47.848Z,2.60
2019-02-24T00:58:47.840Z,2.70
2019-02-24T00:59:47.802Z,2.80
2019-02-24T01:00:47.817Z,2.80
2019-02-24T01:01:47.814Z,2.80
2019-02-24T01:02:47.768Z,2.70
2019-02-24T01:03:47.781Z,2.70
2019-02-24T01:04:47.750Z,2.70
2019-02-24T01:05:47.739Z,2.70
2019-02-24T01:06:47.728Z,3.00
2019-02-24T01:07:47.726Z,2.80
2019-02-24T01:08:47.747Z,3.00
2019-02-24T01:09:47.692Z,2.80
2019-02-24T01:10:47.709Z,2.80
2019-02-24T01:11:47.671Z,2.80
2019-02-24T01:12:47.680Z,2.90
2019-02-24T01:13:47.699Z,2.60
2019-02-24T01:14:47.657Z,2.70
2019-02-24T01:15:47.637Z,2.70
2019-02-24T01:16:47.627Z,2.80
2019-02-24T01:17:47.603Z,2.90
2019-02-24T01:18:47.725Z,2.60
2019-02-24T01:19:47.603Z,2.80
2019-02-24T01:20:47.572Z,2.60
2019-02-24T01:21:47.557Z,3.00
2019-02-24T01:22:47.607Z,2.60
2019-02-24T01:23:47.541Z,2.90
2019-02-24T01:24:47.600Z,2.80
2019-02-24T01:25:47.567Z,2.90
2019-02-24T01:26:47.529Z,2.70
2019-02-24T01:27:47.488Z,3.00
2019-02-24T01:28:47.479Z,2.80
2019-02-24T01:29:47.539Z,2.70
2019-02-24T01:30:47.459Z,2.80
2019-02-24T01:31:47.484Z,2.70
2019-02-24T01:32:47.446Z,2.90
2019-02-24T01:33:47.455Z,2.80
2019-02-24T01:34:47.455Z,2.90
2019-02-24T01:35:47.419Z,2.70
2019-02-24T01:36:47.653Z,3.00
2019-02-24T01:37:47.403Z,3.10
2019-02-24T01:38:47.406Z,2.70
2019-02-24T01:39:47.433Z,3.00
2019-02-24T01:40:47.357Z,2.90
2019-02-24T01:41:47.363Z,2.70
2019-02-24T01:42:47.330Z,3.00
2019-02-24T01:43:47.335Z,2.70
2019-02-24T01:44:47.355Z,2.90
2019-02-24T01:45:47.350Z,2.80
2019-02-24T01:46:47.295Z,2.90
2019-02-24T01:47:47.311Z,2.80
2019-02-24T01:48:47.278Z,2.80
2019-02-24T01:49:47.272Z,2.80
2019-02-24T01:50:47.347Z,2.70
2019-02-24T01:51:47.260Z,2.80
2019-02-24T01:52:47.224Z,2.60
2019-02-24T01:53:47.232Z,2.70
2019-02-24T01:54:47.210Z,2.90
2019-02-24T01:55:47.220Z,2.90
2019-02-24T01:56:47.217Z,3.10
2019-02-24T01:57:47.167Z,3.10
2019-02-24T01:58:47.184Z,2.90
2019-02-24T01:59:47.147Z,2.80
2019-02-24T02:00:47.169Z,2.90
2019-02-24T02:01:47.139Z,2.90
2019-02-24T02:02:47.207Z,2.80
2019-02-24T02:03:47.111Z,2.90
2019-02-24T02:04:47.095Z,2.70
2019-02-24T02:05:47.157Z,2.80
2019-02-24T02:06:47.120Z,2.90
2019-02-24T02:07:47.066Z,2.90
2019-02-24T02:08:47.077Z,2.80
2019-02-24T02:09:47.040Z,2.80
2019-02-24T02:10:47.056Z,2.60
2019-02-24T02:11:47.047Z,2.80
2019-02-24T02:12:47.015Z,2.80
2019-02-24T02:13:47.018Z,2.90
2019-02-24T02:14:46.999Z,3.20
2019-02-24T02:15:46.996Z,2.80
2019-02-24T02:16:47.014Z,2.80
2019-02-24T02:17:46.991Z,3.00
2019-02-24T02:18:46.949Z,2.90
2019-02-24T02:19:46.991Z,2.60
2019-02-24T02:20:46.944Z,2.80
2019-02-24T02:21:47.032Z,3.00
2019-02-24T02:22:46.927Z,2.90
2019-02-24T02:23:46.955Z,3.10
2019-02-24T02:24:46.889Z,2.70
2019-02-24T02:25:46.879Z,2.90
2019-02-24T02:26:46.908Z,2.80
2019-02-24T02:27:46.855Z,2.80
2019-02-24T02:28:46.876Z,2.90
2019-02-24T02:29:46.835Z,3.00
2019-02-24T02:30:46.859Z,2.90
2019-02-24T02:31:46.809Z,3.00
2019-02-24T02:32:46.855Z,3.10
2019-02-24T02:33:46.816Z,3.00
2019-02-24T02:34:46.797Z,2.90
2019-02-24T02:35:46.800Z,3.00
2019-02-24T02:36:46.753Z,3.20
2019-02-24T02:37:46.824Z,3.20
2019-02-24T02:38:46.753Z,3.00
2019-02-24T02:39:46.735Z,2.80
2019-02-24T02:40:46.736Z,2.90
2019-02-24T02:41:46.718Z,2.90
2019-02-24T02:42:46.698Z,2.80
2019-02-24T02:43:46.745Z,2.70
2019-02-24T02:44:46.663Z,3.10
2019-02-24T02:45:46.693Z,3.00
2019-02-24T02:46:46.651Z,2.70
2019-02-24T02:47:46.634Z,3.00
2019-02-24T02:48:46.659Z,2.70
2019-02-24T02:49:46.637Z,2.80
2019-02-24T02:50:46.645Z,2.90
2019-02-24T02:51:46.585Z,3.40
2019-02-24T02:52:46.607Z,3.10
2019-02-24T02:53:48.506Z,3.20
2019-02-24T02:54:46.574Z,3.10
2019-02-24T02:55:46.584Z,2.90
2019-02-24T02:56:46.583Z,2.90
2019-02-24T02:57:46.546Z,2.80
2019-02-24T02:58:53.852Z,3.10
2019-02-24T02:59:47.521Z,2.90
2019-02-24T03:00:46.520Z,3.00
2019-02-24T03:01:46.493Z,2.90
2019-02-24T03:02:46.490Z,2.80
2019-02-24T03:03:46.525Z,3.10
2019-02-24T03:04:46.454Z,3.00
2019-02-24T03:05:46.444Z,2.90
2019-02-24T03:06:46.460Z,3.10
2019-02-24T03:07:46.427Z,2.90
2019-02-24T03:08:46.440Z,3.10
2019-02-24T03:09:46.443Z,3.00
2019-02-24T03:10:46.416Z,2.80
2019-02-24T03:11:46.386Z,3.10
2019-02-24T03:12:46.405Z,3.10
2019-02-24T03:13:46.356Z,2.90
2019-02-24T03:14:46.379Z,3.10
2019-02-24T03:15:46.338Z,2.90
2019-02-24T03:16:46.380Z,3.10
2019-02-24T03:17:46.318Z,2.90
2019-02-24T03:18:46.300Z,2.90
2019-02-24T03:19:46.986Z,3.00
2019-02-24T03:20:46.294Z,2.90
2019-02-24T03:21:46.281Z,3.10
2019-02-24T03:22:46.304Z,3.20
2019-02-24T03:23:46.289Z,3.00
2019-02-24T03:24:46.284Z,2.90
2019-02-24T03:25:46.242Z,3.10
2019-02-24T03:26:46.260Z,3.10
2019-02-24T03:27:46.226Z,3.10
2019-02-24T03:28:46.216Z,2.90
2019-02-24T03:29:46.217Z,2.90
2019-02-24T03:30:46.263Z,3.10
2019-02-24T03:31:46.186Z,2.70
2019-02-24T03:32:46.159Z,3.10
2019-02-24T03:33:46.165Z,3.00
2019-02-24T03:34:46.174Z,2.90
2019-02-24T03:35:46.164Z,2.90
2019-02-24T03:36:46.129Z,3.10
2019-02-24T03:37:46.113Z,3.00
2019-02-24T03:38:46.143Z,3.00
2019-02-24T03:39:46.116Z,2.90
2019-02-24T03:40:46.103Z,2.80
2019-02-24T03:41:46.131Z,3.10
2019-02-24T03:42:46.076Z,3.10
2019-02-24T03:43:46.068Z,3.00
2019-02-24T03:44:46.025Z,2.90
2019-02-24T03:45:46.026Z,3.00
2019-02-24T03:46:46.039Z,3.10
2019-02-24T03:47:46.025Z,3.00
2019-02-24T03:48:46.026Z,3.20
2019-02-24T03:49:45.997Z,3.20
2019-02-24T03:50:45.986Z,3.00
2019-02-24T03:51:46.024Z,2.90
2019-02-24T03:52:46.018Z,3.00
2019-02-24T03:53:45.956Z,2.90
2019-02-24T03:54:45.933Z,3.10
2019-02-24T03:55:45.916Z,3.00
2019-02-24T03:56:45.901Z,3.10
2019-02-24T03:57:45.942Z,3.00
2019-02-24T03:58:45.876Z,3.10
2019-02-24T03:59:45.866Z,3.10
2019-02-24T04:00:45.863Z,2.90
2019-02-24T04:01:45.871Z,3.40
2019-02-24T04:02:45.869Z,3.20
2019-02-24T04:03:45.826Z,3.20
2019-02-24T04:04:45.811Z,3.00
2019-02-24T04:05:45.799Z,3.10
2019-02-24T04:06:45.841Z,3.30
2019-02-24T04:07:45.818Z,2.90
2019-02-24T04:08:45.770Z,3.20
2019-02-24T04:09:45.769Z,3.30
2019-02-24T04:10:45.748Z,3.10
2019-02-24T04:11:45.734Z,2.80
2019-02-24T04:12:45.728Z,3.00
2019-02-24T04:13:45.740Z,3.00
2019-02-24T04:14:45.760Z,3.20
2019-02-24T04:15:45.701Z,3.20
2019-02-24T04:16:45.693Z,3.10
2019-02-24T04:17:45.674Z,3.30
2019-02-24T04:18:45.698Z,3.10
2019-02-24T04:19:45.649Z,3.20
2019-02-24T04:20:45.646Z,3.20
2019-02-24T04:21:45.633Z,3.10
2019-02-24T04:22:45.618Z,3.20
2019-02-24T04:23:45.639Z,3.10
2019-02-24T04:24:45.640Z,3.30
2019-02-24T04:25:45.624Z,2.90
2019-02-24T04:26:45.595Z,3.00
2019-02-24T04:27:45.567Z,3.00
2019-02-24T04:28:45.581Z,3.30
2019-02-24T04:29:45.546Z,3.30
2019-02-24T04:30:45.535Z,3.20
2019-02-24T04:31:45.526Z,3.10
2019-02-24T04:32:45.509Z,3.20
2019-02-24T04:33:45.511Z,3.20
2019-02-24T04:34:45.514Z,3.20
2019-02-24T04:35:45.477Z,3.20
2019-02-24T04:36:45.524Z,3.20
2019-02-24T04:37:45.459Z,3.30
2019-02-24T04:38:45.452Z,3.20
2019-02-24T04:39:45.498Z,3.30
2019-02-24T04:40:45.431Z,3.10
2019-02-24T04:41:45.424Z,3.30
2019-02-24T04:42:45.402Z,3.30
2019-02-24T04:43:45.401Z,3.30
2019-02-24T04:44:45.401Z,3.20
2019-02-24T04:45:45.404Z,3.50
2019-02-24T04:46:45.361Z,3.10
2019-02-24T04:47:45.377Z,3.20
2019-02-24T04:48:45.341Z,3.20
2019-02-24T04:49:45.331Z,3.10
2019-02-24T04:50:45.347Z,3.00
2019-02-24T04:51:45.315Z,3.30
2019-02-24T04:52:45.303Z,3.10
2019-02-24T04:53:45.283Z,3.10
2019-02-24T04:54:45.273Z,3.20
2019-02-24T04:55:45.298Z,3.20
2019-02-24T04:56:45.257Z,3.10
2019-02-24T04:57:45.253Z,3.00
2019-02-24T04:58:45.264Z,3.30
2019-02-24T04:59:45.256Z,3.30
2019-02-24T05:00:45.209Z,3.10
2019-02-24T05:01:45.255Z,3.30
2019-02-24T05:02:45.197Z,3.00
2019-02-24T05:03:45.182Z,3.10
2019-02-24T05:04:45.169Z,3.20
2019-02-24T05:05:45.159Z,3.00
2019-02-24T05:06:45.179Z,3.20
2019-02-24T05:07:45.138Z,3.40
2019-02-24T05:08:45.123Z,3.30
2019-02-24T05:09:45.112Z,3.00
2019-02-24T05:10:45.130Z,3.30
2019-02-24T05:11:45.144Z,3.00
2019-02-24T05:12:45.081Z,3.20
2019-02-24T05:13:45.073Z,3.30
2019-02-24T05:14:45.066Z,3.10
2019-02-24T05:15:45.048Z,3.10
2019-02-24T05:16:45.081Z,3.20
2019-02-24T05:17:45.039Z,3.10
2019-02-24T05:18:45.019Z,3.20
2019-02-24T05:19:45.005Z,3.20
2019-02-24T05:20:45.017Z,3.20
2019-02-24T05:21:45.089Z,3.10
2019-02-24T05:22:44.978Z,3.20
2019-02-24T05:23:44.966Z,3.30
2019-02-24T05:24:44.950Z,3.20
2019-02-24T05:25:44.963Z,3.00
2019-02-24T05:26:44.933Z,3.30
2019-02-24T05:27:44.961Z,3.20
2019-02-24T05:28:44.906Z,3.10
2019-02-24T05:29:46.294Z,3.30
2019-02-24T05:30:44.921Z,3.40
2019-02-24T05:31:44.894Z,3.20
2019-02-24T05:32:44.961Z,3.40
2019-02-24T05:33:44.855Z,3.20
2019-02-24T05:34:44.844Z,3.30
2019-02-24T05:35:44.836Z,3.10
2019-02-24T05:36:44.850Z,3.30
2019-02-24T05:37:44.837Z,3.20
2019-02-24T05:38:44.803Z,3.30
2019-02-24T05:39:44.786Z,3.40
2019-02-24T05:40:44.784Z,3.30
2019-02-24T05:41:44.768Z,3.20
2019-02-24T05:42:44.809Z,3.10
2019-02-24T05:43:44.787Z,3.30
2019-02-24T05:44:44.733Z,3.50
2019-02-24T05:45:44.722Z,3.50
2019-02-24T05:46:44.711Z,3.50
2019-02-24T05:47:44.709Z,3.40
2019-02-24T05:48:44.751Z,3.30
2019-02-24T05:49:44.683Z,3.20
2019-02-24T05:50:44.678Z,3.20
2019-02-24T05:51:44.657Z,3.20
2019-02-24T05:52:44.648Z,3.00
2019-02-24T05:53:44.640Z,3.50
2019-02-24T05:54:44.729Z,3.20
2019-02-24T05:55:44.634Z,3.30
2019-02-24T05:56:44.615Z,3.30
2019-02-24T05:57:44.609Z,3.60
2019-02-24T05:58:44.584Z,3.40
2019-02-24T05:59:44.598Z,3.30
2019-02-24T06:00:44.564Z,3.20
2019-02-24T06:01:44.551Z,3.40
2019-02-24T06:02:44.544Z,3.20
2019-02-24T06:03:44.546Z,3.20
2019-02-24T06:04:44.544Z,3.40
2019-02-24T06:05:44.508Z,3.20
2019-02-24T06:06:44.495Z,3.40
2019-02-24T06:07:44.492Z,3.20
2019-02-24T06:08:44.475Z,3.30
2019-02-24T06:09:44.514Z,3.30
2019-02-24T06:10:44.490Z,3.20
2019-02-24T06:11:44.458Z,3.20
2019-02-24T06:12:44.438Z,3.50
2019-02-24T06:13:44.420Z,3.20
2019-02-24T06:14:44.461Z,3.30
2019-02-24T06:15:44.400Z,3.20
2019-02-24T06:16:44.406Z,3.30
2019-02-24T06:17:44.391Z,3.60
2019-02-24T06:18:44.388Z,3.30
2019-02-24T06:19:44.362Z,3.30
2019-02-24T06:20:44.374Z,3.30
2019-02-24T06:21:44.352Z,3.10
2019-02-24T06:22:44.330Z,3.50
2019-02-24T06:23:44.326Z,3.40
2019-02-24T06:24:44.309Z,3.30
2019-02-24T06:25:44.364Z,3.20
2019-02-24T06:26:44.293Z,3.30
2019-02-24T06:27:44.309Z,3.40
2019-02-24T06:28:44.262Z,3.50
2019-02-24T06:29:44.251Z,3.30
2019-02-24T06:30:44.283Z,3.30
2019-02-24T06:31:44.234Z,3.30
2019-02-24T06:32:44.228Z,3.50
2019-02-24T06:33:44.211Z,3.30
2019-02-24T06:34:44.207Z,3.30
2019-02-24T06:35:44.186Z,3.20
2019-02-24T06:36:44.205Z,3.50
2019-02-24T06:37:44.174Z,3.20
2019-02-24T06:38:44.192Z,3.20
2019-02-24T06:39:44.150Z,3.40
2019-02-24T06:40:44.142Z,3.40
2019-02-24T06:41:44.147Z,3.10
2019-02-24T06:42:44.114Z,3.60
2019-02-24T06:43:44.109Z,3.30
2019-02-24T06:44:44.098Z,3.40
2019-02-24T06:45:44.113Z,3.50
2019-02-24T06:46:44.103Z,3.20
2019-02-24T06:47:44.062Z,3.40
2019-02-24T06:48:44.055Z,3.40
2019-02-24T06:49:44.067Z,3.30
2019-02-24T06:50:44.041Z,3.60
2019-02-24T06:51:44.057Z,3.40
2019-02-24T06:52:44.019Z,3.40
2019-02-24T06:53:43.999Z,3.20
2019-02-24T06:54:43.996Z,3.60
2019-02-24T06:55:43.980Z,3.30
2019-02-24T06:56:43.970Z,3.50
2019-02-24T06:57:43.984Z,3.40
2019-02-24T06:58:43.945Z,3.60
2019-02-24T06:59:43.937Z,3.40
2019-02-24T07:00:43.973Z,3.50
2019-02-24T07:01:43.911Z,3.30
2019-02-24T07:02:43.933Z,3.50
2019-02-24T07:03:43.896Z,3.60
2019-02-24T07:04:43.887Z,3.70
2019-02-24T07:05:43.880Z,3.20
2019-02-24T07:06:43.877Z,3.20
2019-02-24T07:07:43.901Z,3.30
2019-02-24T07:08:43.847Z,3.60
2019-02-24T07:09:43.827Z,3.40
2019-02-24T07:10:43.818Z,3.60
2019-02-24T07:11:43.811Z,3.40
2019-02-24T07:12:43.812Z,3.40
2019-02-24T07:13:43.818Z,3.40
2019-02-24T07:14:43.775Z,3.30
2019-02-24T07:15:43.764Z,3.70
2019-02-24T07:16:43.751Z,3.40
2019-02-24T07:17:43.754Z,3.60
2019-02-24T07:18:43.799Z,3.50
2019-02-24T07:19:43.721Z,3.40
2019-02-24T07:20:43.743Z,3.20
2019-02-24T07:21:43.702Z,3.50
2019-02-24T07:22:43.692Z,3.30
2019-02-24T07:23:43.726Z,3.40
2019-02-24T07:24:43.665Z,3.20
2019-02-24T07:25:43.656Z,3.40
2019-02-24T07:26:43.679Z,3.40
2019-02-24T07:27:43.647Z,3.60
2019-02-24T07:28:43.628Z,3.50
2019-02-24T07:29:43.643Z,3.60
2019-02-24T07:30:43.612Z,3.50
2019-02-24T07:31:43.592Z,3.60
2019-02-24T07:32:43.588Z,3.60
2019-02-24T07:33:43.576Z,3.60
2019-02-24T07:34:43.660Z,3.30
2019-02-24T07:35:43.551Z,3.50
2019-02-24T07:36:43.563Z,3.30
2019-02-24T07:37:43.532Z,3.60
2019-02-24T07:38:43.515Z,3.30
2019-02-24T07:39:43.537Z,3.60
2019-02-24T07:40:43.500Z,3.50
2019-02-24T07:41:43.507Z,3.30
2019-02-24T07:42:43.481Z,3.50
2019-02-24T07:43:43.461Z,3.20
2019-02-24T07:44:43.483Z,3.50
2019-02-24T07:45:43.442Z,3.60
2019-02-24T07:46:43.443Z,3.40
2019-02-24T07:47:43.431Z,3.40
2019-02-24T07:48:43.411Z,3.50
2019-02-24T07:49:43.443Z,3.50
2019-02-24T07:50:43.390Z,3.50
2019-02-24T07:51:43.392Z,3.70
2019-02-24T07:52:43.368Z,3.60
2019-02-24T07:53:43.364Z,3.50
2019-02-24T07:54:43.382Z,3.50
2019-02-24T07:55:43.346Z,3.40
2019-02-24T07:56:43.324Z,3.60
2019-02-24T07:57:43.313Z,3.60
2019-02-24T07:58:43.302Z,3.40
2019-02-24T07:59:43.337Z,3.20
2019-02-24T08:00:43.290Z,3.40
2019-02-24T08:01:43.276Z,3.60
2019-02-24T08:02:43.269Z,3.40
2019-02-24T08:03:43.255Z,3.60
2019-02-24T08:04:43.267Z,3.60
2019-02-24T08:05:43.245Z,3.10
2019-02-24T08:06:43.217Z,3.50
2019-02-24T08:07:43.228Z,3.40
2019-02-24T08:08:43.199Z,3.60
2019-02-24T08:09:43.224Z,3.50
2019-02-24T08:10:43.186Z,3.40
2019-02-24T08:11:43.167Z,3.60
2019-02-24T08:12:43.171Z,3.70
2019-02-24T08:13:44.095Z,3.50
2019-02-24T08:14:43.163Z,3.50
2019-02-24T08:15:43.121Z,3.50
2019-02-24T08:16:43.119Z,3.60
2019-02-24T08:17:43.106Z,3.40
2019-02-24T08:18:49.312Z,3.30
2019-02-24T08:19:43.104Z,3.40
2019-02-24T08:20:43.074Z,3.40
2019-02-24T08:21:43.125Z,3.30
2019-02-24T08:22:43.055Z,3.20
2019-02-24T08:23:43.037Z,3.40
2019-02-24T08:24:43.052Z,3.40
2019-02-24T08:25:43.018Z,3.40
2019-02-24T08:26:43.013Z,3.40
2019-02-24T08:27:43.012Z,3.70
2019-02-24T08:28:42.990Z,3.50
2019-02-24T08:29:43.001Z,3.50
2019-02-24T08:30:42.994Z,3.70
2019-02-24T08:31:42.960Z,3.70
2019-02-24T08:32:42.947Z,3.60
2019-02-24T08:33:42.933Z,3.60
2019-02-24T08:34:42.942Z,3.30
2019-02-24T08:35:42.931Z,3.40
2019-02-24T08:36:42.902Z,3.40
2019-02-24T08:37:42.896Z,3.60
2019-02-24T08:38:42.918Z,3.60
2019-02-24T08:39:42.900Z,3.40
2019-02-24T08:40:42.864Z,3.40
2019-02-24T08:41:42.904Z,3.60
2019-02-24T08:42:42.839Z,3.70
2019-02-24T08:43:42.829Z,3.50
2019-02-24T08:44:42.840Z,3.40
2019-02-24T08:45:42.803Z,3.50
2019-02-24T08:46:42.794Z,3.40
2019-02-24T08:47:42.786Z,3.60
2019-02-24T08:48:42.774Z,3.70
2019-02-24T08:49:42.794Z,3.30
2019-02-24T08:50:42.751Z,3.60
2019-02-24T08:51:42.761Z,3.60
2019-02-24T08:52:42.728Z,3.50
2019-02-24T08:53:42.724Z,3.60
2019-02-24T08:54:42.738Z,3.30
2019-02-24T08:55:42.713Z,3.50
2019-02-24T08:56:42.690Z,3.80
2019-02-24T08:57:42.679Z,3.50
2019-02-24T08:58:42.670Z,3.60
2019-02-24T08:59:42.688Z,3.60
2019-02-24T09:00:50.764Z,3.50
2019-02-24T09:01:43.644Z,3.50
2019-02-24T09:02:42.622Z,3.50
2019-02-24T09:03:42.613Z,3.50
2019-02-24T09:04:42.628Z,3.40
2019-02-24T09:05:42.588Z,3.60
2019-02-24T09:06:42.581Z,3.70
2019-02-24T09:07:42.587Z,3.50
2019-02-24T09:08:42.569Z,3.50
2019-02-24T09:09:42.555Z,3.50
2019-02-24T09:10:42.565Z,3.60
2019-02-24T09:11:42.534Z,3.70
2019-02-24T09:12:42.516Z,3.50
2019-02-24T09:13:42.510Z,3.30
2019-02-24T09:14:42.500Z,3.60
2019-02-24T09:15:42.509Z,3.60
2019-02-24T09:16:42.480Z,3.30
2019-02-24T09:17:42.509Z,3.60
2019-02-24T09:18:42.502Z,3.40
2019-02-24T09:19:42.440Z,3.30
2019-02-24T09:20:42.462Z,3.70
2019-02-24T09:21:42.434Z,3.60
2019-02-24T09:22:42.419Z,3.70
2019-02-24T09:23:42.407Z,3.70
2019-02-24T09:24:42.389Z,3.60
2019-02-24T09:25:42.422Z,3.30
2019-02-24T09:26:42.373Z,3.30
2019-02-24T09:27:42.363Z,3.30
2019-02-24T09:28:42.346Z,3.40
2019-02-24T09:29:42.367Z,3.40
2019-02-24T09:30:42.368Z,3.50
2019-02-24T09:31:42.321Z,3.60
2019-02-24T09:32:42.314Z,3.70
2019-02-24T09:33:42.294Z,3.50
2019-02-24T09:34:42.295Z,3.50
2019-02-24T09:35:42.310Z,3.70
2019-02-24T09:36:42.263Z,3.70
2019-02-24T09:37:42.251Z,3.40
2019-02-24T09:38:42.245Z,3.70
2019-02-24T09:39:42.236Z,3.30
2019-02-24T09:40:42.291Z,3.80
2019-02-24T09:41:42.216Z,3.50
2019-02-24T09:42:42.199Z,3.50
2019-02-24T09:43:42.193Z,3.50
2019-02-24T09:44:42.178Z,3.50
2019-02-24T09:45:42.216Z,3.70
2019-02-24T09:46:42.159Z,3.70
2019-02-24T09:47:46.723Z,3.70
2019-02-24T09:48:43.131Z,3.40
2019-02-24T09:49:42.121Z,3.40
2019-02-24T09:50:42.145Z,3.40
2019-02-24T09:51:42.106Z,3.50
2019-02-24T09:52:42.097Z,3.40
2019-02-24T09:53:42.085Z,3.30
2019-02-24T09:54:42.072Z,3.60
2019-02-24T09:55:42.088Z,3.60
2019-02-24T09:56:42.052Z,3.50
2019-02-24T09:57:42.046Z,3.50
2019-02-24T09:58:42.029Z,3.80
2019-02-24T09:59:42.032Z,3.40
2019-02-24T10:00:42.032Z,3.30
2019-02-24T10:01:41.994Z,3.50
2019-02-24T10:02:41.994Z,3.60
2019-02-24T10:03:41.979Z,3.60
2019-02-24T10:04:41.967Z,3.70
2019-02-24T10:05:41.989Z,3.60
2019-02-24T10:06:41.939Z,3.40
2019-02-24T10:07:41.933Z,3.50
2019-02-24T10:08:41.933Z,3.60
2019-02-24T10:09:41.917Z,3.70
2019-02-24T10:10:41.950Z,3.60
2019-02-24T10:11:41.901Z,3.60
2019-02-24T10:12:41.876Z,3.60
2019-02-24T10:13:41.881Z,3.70
2019-02-24T10:14:41.867Z,3.50
2019-02-24T10:15:41.965Z,3.70
2019-02-24T10:16:41.836Z,3.50
2019-02-24T10:17:41.829Z,3.50
2019-02-24T10:18:41.824Z,3.70
2019-02-24T10:19:41.799Z,3.70
2019-02-24T10:20:41.924Z,3.70
2019-02-24T10:21:41.788Z,3.60
2019-02-24T10:22:41.767Z,3.70
2019-02-24T10:23:41.775Z,3.80
2019-02-24T10:24:41.751Z,3.90
2019-02-24T10:25:41.755Z,3.40
2019-02-24T10:26:41.757Z,3.80
2019-02-24T10:27:41.710Z,3.60
2019-02-24T10:28:41.728Z,3.60
2019-02-24T10:29:41.695Z,3.60
2019-02-24T10:30:41.711Z,3.30
2019-02-24T10:31:41.675Z,3.70
2019-02-24T10:32:41.677Z,3.50
2019-02-24T10:33:41.645Z,3.50
2019-02-24T10:34:41.636Z,3.70
2019-02-24T10:35:41.653Z,3.60
2019-02-24T10:36:41.615Z,3.60
2019-02-24T10:37:41.639Z,3.50
2019-02-24T10:38:41.610Z,3.60
2019-02-24T10:39:41.608Z,3.60
2019-02-24T10:40:41.595Z,3.50
2019-02-24T10:41:41.564Z,4.00
2019-02-24T10:42:41.557Z,3.60
2019-02-24T10:43:41.538Z,3.70
2019-02-24T10:44:41.557Z,3.50
2019-02-24T10:45:41.553Z,3.70
2019-02-24T10:46:41.514Z,3.60
2019-02-24T10:47:41.496Z,3.70
2019-02-24T10:48:41.511Z,3.60
2019-02-24T10:49:41.492Z,3.60
2019-02-24T10:50:41.491Z,3.70
2019-02-24T10:51:41.462Z,3.70
2019-02-24T10:52:41.451Z,3.80
2019-02-24T10:53:41.437Z,3.60
2019-02-24T10:54:41.421Z,3.50
2019-02-24T10:55:41.437Z,3.50
2019-02-24T10:56:41.404Z,3.60
2019-02-24T10:57:41.398Z,3.40
2019-02-24T10:58:41.385Z,3.50
2019-02-24T10:59:41.401Z,3.40
2019-02-24T11:00:41.393Z,3.60
2019-02-24T11:01:41.350Z,3.70
2019-02-24T11:02:41.341Z,3.60
2019-02-24T11:03:41.328Z,3.60
2019-02-24T11:04:41.313Z,3.70
2019-02-24T11:05:41.332Z,3.70
2019-02-24T11:06:41.308Z,3.60
2019-02-24T11:07:41.303Z,3.70
2019-02-24T11:08:41.275Z,3.70
2019-02-24T11:09:41.261Z,3.80
2019-02-24T11:10:41.282Z,3.60
2019-02-24T11:11:41.240Z,3.60
2019-02-24T11:12:41.232Z,3.60
2019-02-24T11:13:41.252Z,3.70
2019-02-24T11:14:41.221Z,3.50
2019-02-24T11:15:41.261Z,3.50
2019-02-24T11:16:41.187Z,3.50
2019-02-24T11:17:41.183Z,3.40
2019-02-24T11:18:41.169Z,3.20
2019-02-24T11:19:41.159Z,3.50
2019-02-24T11:20:41.152Z,3.70
2019-02-24T11:21:41.174Z,3.30
2019-02-24T11:22:41.134Z,3.70
2019-02-24T11:23:41.129Z,3.70
2019-02-24T11:24:41.119Z,3.80
2019-02-24T11:25:41.094Z,3.50
2019-02-24T11:26:41.112Z,3.80
2019-02-24T11:27:41.075Z,3.50
2019-02-24T11:28:41.064Z,3.80
2019-02-24T11:29:41.058Z,3.70
2019-02-24T11:30:41.042Z,3.50
2019-02-24T11:31:41.057Z,3.60
2019-02-24T11:32:41.036Z,3.50
2019-02-24T11:33:41.011Z,3.60
2019-02-24T11:34:41.001Z,3.50
2019-02-24T11:35:40.991Z,3.50
2019-02-24T11:36:41.015Z,3.60
2019-02-24T11:37:40.967Z,3.60
2019-02-24T11:38:40.954Z,3.70
2019-02-24T11:39:40.968Z,3.70
2019-02-24T11:40:40.932Z,3.50
2019-02-24T11:41:40.953Z,4.10
2019-02-24T11:42:40.922Z,3.50
2019-02-24T11:43:40.937Z,3.40
2019-02-24T11:44:40.901Z,3.60
2019-02-24T11:45:40.888Z,3.50
2019-02-24T11:46:40.901Z,3.60
2019-02-24T11:47:40.865Z,3.60
2019-02-24T11:48:40.845Z,3.50
2019-02-24T11:49:40.851Z,3.80
2019-02-24T11:50:40.826Z,3.60
2019-02-24T11:51:40.862Z,3.60
2019-02-24T11:52:40.800Z,3.50
2019-02-24T11:53:40.793Z,3.50
2019-02-24T11:54:40.796Z,3.50
2019-02-24T11:55:40.778Z,3.70
2019-02-24T11:56:40.788Z,3.50
2019-02-24T11:57:40.757Z,3.60
2019-02-24T11:58:40.741Z,3.40
2019-02-24T11:59:40.732Z,3.80
2019-02-24T12:00:40.714Z,3.70
2019-02-24T12:01:47.279Z,3.60
2019-02-24T12:02:42.026Z,3.60
2019-02-24T12:03:40.683Z,3.50
2019-02-24T12:04:40.686Z,4.00
2019-02-24T12:05:40.668Z,3.30
2019-02-24T12:06:40.682Z,3.60
2019-02-24T12:07:40.648Z,3.70
2019-02-24T12:08:40.645Z,3.60
2019-02-24T12:09:40.629Z,3.60
2019-02-24T12:10:40.607Z,3.40
2019-02-24T12:11:40.622Z,3.60
2019-02-24T12:12:40.590Z,3.60
2019-02-24T12:13:40.580Z,3.70
2019-02-24T12:14:40.594Z,3.50
2019-02-24T12:15:40.557Z,3.60
2019-02-24T12:16:40.576Z,3.50
2019-02-24T12:17:40.547Z,3.50
2019-02-24T12:18:40.524Z,3.80
2019-02-24T12:19:40.514Z,3.60
2019-02-24T12:20:40.511Z,3.50
2019-02-24T12:21:40.523Z,3.40
2019-02-24T12:22:40.492Z,3.70
2019-02-24T12:23:40.471Z,3.70
2019-02-24T12:24:40.462Z,3.60
2019-02-24T12:25:40.450Z,3.10
2019-02-24T12:26:40.468Z,3.30
2019-02-24T12:27:40.438Z,3.60
2019-02-24T12:28:40.441Z,3.60
2019-02-24T12:29:40.409Z,3.60
2019-02-24T12:30:40.404Z,3.60
2019-02-24T12:31:40.418Z,3.40
2019-02-24T12:32:40.370Z,3.50
2019-02-24T12:33:40.374Z,3.50
2019-02-24T12:34:40.360Z,3.60
2019-02-24T12:35:40.344Z,3.30
2019-02-24T12:36:40.351Z,3.30
2019-02-24T12:37:40.327Z,3.40
2019-02-24T12:38:40.310Z,3.50
2019-02-24T12:39:40.294Z,3.60
2019-02-24T12:40:40.323Z,3.70
2019-02-24T12:41:40.308Z,3.60
2019-02-24T12:42:40.274Z,3.20
2019-02-24T12:43:40.286Z,3.60
2019-02-24T12:44:40.253Z,3.30
2019-02-24T12:45:40.232Z,3.30
2019-02-24T12:46:40.254Z,3.40
2019-02-24T12:47:40.210Z,3.40
2019-02-24T12:48:40.205Z,3.50
2019-02-24T12:49:40.202Z,3.60
2019-02-24T12:50:40.187Z,3.40
2019-02-24T12:51:40.300Z,3.30
2019-02-24T12:52:40.156Z,3.30
2019-02-24T12:53:40.147Z,3.40
2019-02-24T12:54:40.137Z,3.30
2019-02-24T12:55:40.130Z,3.50
2019-02-24T12:56:40.149Z,3.40
2019-02-24T12:57:40.125Z,3.40
2019-02-24T12:58:40.099Z,3.60
2019-02-24T12:59:40.081Z,3.60
2019-02-24T13:00:40.072Z,3.80
2019-02-24T13:01:40.082Z,3.50
2019-02-24T13:02:40.135Z,3.40
2019-02-24T13:03:40.043Z,3.30
2019-02-24T13:04:40.043Z,3.70
2019-02-24T13:05:40.016Z,3.50
2019-02-24T13:06:40.038Z,3.30
2019-02-24T13:07:39.998Z,3.60
2019-02-24T13:08:39.990Z,3.40
2019-02-24T13:09:39.981Z,3.50
2019-02-24T13:10:39.973Z,3.30
2019-02-24T13:11:39.990Z,3.60
2019-02-24T13:12:39.939Z,3.70
2019-02-24T13:13:39.929Z,3.50
2019-02-24T13:14:39.922Z,3.60
2019-02-24T13:15:39.934Z,3.50
2019-02-24T13:16:39.933Z,3.40
2019-02-24T13:17:39.891Z,3.60
2019-02-24T13:18:39.896Z,3.10